PATE Airport Information

Runway Information
Runway 07 Length 3000 ft width 60 ft
Elevation 277 ft Threshold ft Heading 89
Runway 25 Length 3000 ft Width 60 ft
Elevation 294 ft Threshold ft Heading 269
Airport Frequencies
Airport Navaids
Airport Weather Information & NOTAM
ADDS - METARS form results

(2043 UTC 10 August 2022)
Data provider http://aviationweather.gov/metar/data/
 
METAR text: PATE 102029Z AUTO 19017G21KT 10SM OVC013 10/07 A2989 RMK AO2
Conditions at: PATE (TELLER , AK, US) observed 2029 UTC 10 August 2022
Temperature: 10.0°C (50°F)
Dewpoint: 7.0°C (45°F) [RH = 82%]
Pressure (altimeter): 29.89 inches Hg (1012.3 mb)
Winds: from the S (190 degrees) at 20 MPH (17 knots; 8.7 m/s)
gusting to 24 MPH (21 knots; 10.8 m/s)
Visibility: 10 or more miles (16+ km)
Ceiling: 1300 feet AGL
Clouds: overcast cloud deck at 1300 feet AGL
Weather: automated observation with no human augmentation;
there may or may not be significant weather present at this time

METAR text: PATE 102019Z AUTO 21016KT 10SM FEW010 OVC015 10/07 A2989 RMK AO2
Conditions at: PATE (TELLER , AK, US) observed 2019 UTC 10 August 2022
Temperature: 10.0°C (50°F)
Dewpoint: 7.0°C (45°F) [RH = 82%]
Pressure (altimeter): 29.89 inches Hg (1012.3 mb)
Winds: from the SSW (210 degrees) at 18 MPH (16 knots; 8.2 m/s)
Visibility: 10 or more miles (16+ km)
Ceiling: 1500 feet AGL
Clouds: few clouds at 1000 feet AGL
overcast cloud deck at 1500 feet AGL
Weather: automated observation with no human augmentation;
there may or may not be significant weather present at this time

METAR text: PATE 101956Z AUTO 20018G22KT 10SM OVC010 09/07 A2989 RMK AO2 SLP127 T00890072
Conditions at: PATE (TELLER , AK, US) observed 1956 UTC 10 August 2022
Temperature: 8.9°C (48°F)
Dewpoint: 7.2°C (45°F) [RH = 89%]
Pressure (altimeter): 29.89 inches Hg (1012.3 mb)
[Sea-level pressure: 1012.7 mb]
Winds: from the SSW (200 degrees) at 21 MPH (18 knots; 9.3 m/s)
gusting to 25 MPH (22 knots; 11.3 m/s)
Visibility: 10 or more miles (16+ km)
Ceiling: 1000 feet AGL
Clouds: overcast cloud deck at 1000 feet AGL
Weather: automated observation with no human augmentation;
there may or may not be significant weather present at this time